Time;durP1;ratioP1;P1;durP2;ratioP2;P2;SDS_P1;SDS_P2;PMS_P1;PMS_P2;Temp;Humidity;BMP_temperature;BMP_pressure;BME280_temperature;BME280_humidity;BME280_pressure;Samples;Min_cycle;Max_cycle;Signal;HPM_P1;HPM_P2
2023/05/22 00:00:06;;;;;;;0.55;0.55;;;;;;;31.48;29.61;100511.63;7394738;19;20011;-80
2023/05/22 00:02:41;;;;;;;1.50;0.80;;;;;;;31.57;29.20;100519.50;7390768;19;20015;-80
2023/05/22 00:05:09;;;;;;;0.80;0.80;;;;;;;31.61;29.41;100514.03;7391200;19;20078;-80
2023/05/22 00:07:36;;;;;;;1.17;1.10;;;;;;;31.64;29.32;100507.06;7393100;19;20027;-80
2023/05/22 00:10:03;;;;;;;0.20;0.20;;;;;;;31.76;29.25;100510.84;7394756;19;20119;-80
2023/05/22 00:12:29;;;;;;;5.05;0.95;;;;;;;31.78;28.99;100510.97;7394252;19;20018;-81
2023/05/22 00:14:56;;;;;;;4.80;0.90;;;;;;;31.73;29.08;100503.44;7391329;19;20015;-80
2023/05/22 00:17:23;;;;;;;0.65;0.65;;;;;;;31.76;29.12;100499.31;7389365;19;20029;-80
2023/05/22 00:19:50;;;;;;;1.50;0.77;;;;;;;31.75;29.10;100500.69;7393258;19;20026;-80
2023/05/22 00:22:16;;;;;;;1.40;1.20;;;;;;;31.63;29.07;100505.56;7390677;19;20048;-80
2023/05/22 00:24:42;;;;;;;0.60;0.60;;;;;;;31.58;29.10;100498.00;7390494;19;20052;-80
2023/05/22 00:27:08;;;;;;;1.45;1.13;;;;;;;31.50;29.11;100494.50;7391344;19;20018;-80
2023/05/22 00:29:35;;;;;;;6.55;1.00;;;;;;;31.43;29.09;100499.81;7393060;19;20034;-80
2023/05/22 00:32:01;;;;;;;0.35;0.20;;;;;;;31.31;29.02;100496.00;7390173;19;20043;-80
2023/05/22 00:34:27;;;;;;;0.95;0.85;;;;;;;31.18;29.03;100495.72;7390073;19;20015;-80
2023/05/22 00:36:53;;;;;;;0.57;0.57;;;;;;;29.91;29.74;100500.84;7391422;19;20018;-80
2023/05/22 00:39:20;;;;;;;0.57;0.57;;;;;;;29.85;30.24;100491.00;7395795;19;20029;-80
2023/05/22 00:41:46;;;;;;;1.75;0.32;;;;;;;28.92;30.87;100491.13;7406237;19;20047;-80
2023/05/22 00:44:13;;;;;;;1.08;1.08;;;;;;;29.01;30.90;100490.47;7413650;19;20021;-80
2023/05/22 00:46:39;;;;;;;0.50;0.50;;;;;;;28.49;31.43;100487.50;7402761;19;20011;-80
2023/05/22 00:49:05;;;;;;;0.57;0.57;;;;;;;29.01;31.15;100484.72;7393287;19;20046;-80
2023/05/22 00:51:32;;;;;;;0.90;0.90;;;;;;;29.37;30.59;100473.41;7388599;19;20536;-80
2023/05/22 00:53:58;;;;;;;0.30;0.30;;;;;;;29.42;30.36;100474.50;7389994;19;20022;-80
2023/05/22 00:56:25;;;;;;;0.50;0.50;;;;;;;29.82;30.21;100475.72;7390542;19;20024;-80
2023/05/22 00:58:52;;;;;;;0.77;0.77;;;;;;;29.57;30.13;100471.44;7393260;19;20011;-80
2023/05/22 01:01:18;;;;;;;1.10;0.22;;;;;;;29.82;29.87;100469.97;7391966;19;20026;-80
2023/05/22 01:03:45;;;;;;;0.32;0.32;;;;;;;30.04;30.07;100473.13;7390672;19;20014;-81
2023/05/22 01:06:17;;;;;;;1.85;0.50;;;;;;;30.31;29.54;100468.09;7389155;19;20018;-80
2023/05/22 01:08:43;;;;;;;0.35;0.30;;;;;;;30.51;29.06;100461.06;7391738;19;20039;-80
2023/05/22 01:11:20;;;;;;;1.30;0.73;;;;;;;30.48;28.87;100465.13;7388628;19;20010;-80
2023/05/22 01:14:10;;;;;;;0.73;0.73;;;;;;;30.51;28.86;100463.94;7394371;19;20019;-79
2023/05/22 01:17:10;;;;;;;0.70;0.70;;;;;;;30.57;28.73;100467.28;7387591;19;20022;-80
2023/05/22 01:19:46;;;;;;;1.03;0.70;;;;;;;30.63;28.88;100459.88;7391955;19;20022;-80
2023/05/22 01:22:13;;;;;;;0.70;0.70;;;;;;;30.70;28.62;100458.22;7392876;19;20018;-80
2023/05/22 01:24:57;;;;;;;0.60;0.60;;;;;;;30.63;28.61;100459.13;7391899;19;20335;-80
2023/05/22 01:27:51;;;;;;;1.77;0.73;;;;;;;30.61;28.39;100461.84;7392817;19;20010;-80
2023/05/22 01:30:42;;;;;;;0.80;0.80;;;;;;;30.16;28.78;100463.34;7391402;19;20010;-80
2023/05/22 01:33:10;;;;;;;0.73;0.73;;;;;;;29.99;28.45;100454.78;7393841;19;20019;-80
2023/05/22 01:35:38;;;;;;;0.63;0.63;;;;;;;26.96;30.23;100450.16;7390167;19;20030;-80
2023/05/22 01:38:06;;;;;;;2.92;0.50;;;;;;;20.51;38.81;100461.19;7386257;19;20014;-79
2023/05/22 01:40:33;;;;;;;0.50;0.50;;;;;;;26.68;33.97;100451.09;7391047;19;20018;-79
2023/05/22 01:43:00;;;;;;;0.60;0.60;;;;;;;28.88;31.10;100453.50;7394360;19;20023;-80
2023/05/22 01:45:26;;;;;;;1.13;1.02;;;;;;;29.65;29.73;100455.63;7393316;19;20031;-79
2023/05/22 01:47:52;;;;;;;0.68;0.68;;;;;;;29.79;29.85;100453.94;7391864;19;20062;-79
2023/05/22 01:50:19;;;;;;;0.52;0.52;;;;;;;29.82;29.22;100452.72;7394078;19;20014;-80
2023/05/22 01:52:51;;;;;;;0.70;0.70;;;;;;;29.86;28.98;100458.81;7393844;19;20399;-80
2023/05/22 01:55:28;;;;;;;;;;;;;;;30.19;29.16;100447.00;7393379;19;20487;-79
2023/05/22 01:58:18;;;;;;;0.45;0.45;;;;;;;29.89;28.71;100446.13;7392876;19;19927;-81
2023/05/22 02:00:46;;;;;;;0.50;0.50;;;;;;;29.65;28.71;100449.16;7393902;19;20504;-81
2023/05/22 02:03:17;;;;;;;0.50;0.45;;;;;;;29.22;29.37;100439.16;7397302;19;20014;-82
2023/05/22 02:05:44;;;;;;;;;;;;;;;29.35;28.94;100447.44;7392828;19;20018;-82
2023/05/22 02:08:12;;;;;;;0.22;0.22;;;;;;;29.26;29.38;100448.09;7396206;19;19939;-81
2023/05/22 02:10:42;;;;;;;2.78;0.80;;;;;;;29.45;28.91;100445.41;7393952;19;20014;-81
2023/05/22 02:13:09;;;;;;;0.85;0.63;;;;;;;29.34;29.28;100454.53;7397740;19;20391;-81
2023/05/22 02:15:36;;;;;;;1.52;1.17;;;;;;;29.07;29.25;100445.81;7395678;19;20014;-81
2023/05/22 02:18:02;;;;;;;1.50;0.80;;;;;;;29.00;29.46;100434.47;7391932;19;20042;-81
2023/05/22 02:20:28;;;;;;;0.45;0.45;;;;;;;29.28;28.97;100445.44;7397845;19;20021;-81
2023/05/22 02:22:54;;;;;;;0.52;0.52;;;;;;;29.27;29.04;100434.53;7396507;19;20018;-81
2023/05/22 02:25:21;;;;;;;0.75;0.75;;;;;;;29.16;29.04;100438.69;7393983;19;20113;-81
2023/05/22 02:27:48;;;;;;;0.73;0.73;;;;;;;29.05;28.71;100439.16;7394528;19;20052;-79
2023/05/22 02:30:14;;;;;;;0.45;0.45;;;;;;;29.22;28.81;100444.91;7396894;19;20040;-80
2023/05/22 02:32:42;;;;;;;1.65;0.40;;;;;;;29.19;28.64;100443.97;7394094;19;20018;-80
2023/05/22 02:35:08;;;;;;;2.42;0.93;;;;;;;29.23;28.66;100441.47;7395092;19;20011;-79
2023/05/22 02:37:35;;;;;;;0.65;0.65;;;;;;;29.30;28.31;100444.81;7395206;19;20018;-79
2023/05/22 02:40:04;;;;;;;0.90;0.70;;;;;;;29.24;28.72;100445.06;7397271;19;20021;-79
2023/05/22 02:42:31;;;;;;;2.25;0.80;;;;;;;28.56;29.30;100445.00;7394169;19;20020;-80
2023/05/22 02:44:58;;;;;;;1.05;0.95;;;;;;;29.19;28.33;100443.97;7393809;19;20099;-80
2023/05/22 02:47:24;;;;;;;1.02;1.02;;;;;;;29.21;28.57;100446.28;7393666;19;20370;-79
2023/05/22 02:49:50;;;;;;;0.50;0.50;;;;;;;29.08;28.55;100449.47;7397948;19;20026;-79
2023/05/22 02:52:16;;;;;;;0.85;0.85;;;;;;;28.81;28.97;100448.59;7393216;19;20023;-80
2023/05/22 02:54:43;;;;;;;0.30;0.30;;;;;;;28.53;28.92;100452.66;7391472;19;20015;-79
2023/05/22 02:57:09;;;;;;;0.40;0.40;;;;;;;28.82;29.00;100450.13;7393005;19;20010;-79
2023/05/22 02:59:35;;;;;;;0.60;0.60;;;;;;;29.21;28.60;100443.41;7396241;19;20089;-79
2023/05/22 03:02:02;;;;;;;0.60;0.60;;;;;;;28.83;28.56;100445.91;7393327;19;20025;-79
2023/05/22 03:04:28;;;;;;;2.75;0.60;;;;;;;28.77;28.51;100443.28;7393667;19;20007;-79
2023/05/22 03:06:55;;;;;;;0.52;0.52;;;;;;;28.80;28.64;100447.88;7395733;19;20382;-79
2023/05/22 03:09:21;;;;;;;8.45;0.85;;;;;;;29.31;28.12;100444.22;7395543;19;20602;-79
2023/05/22 03:11:47;;;;;;;1.55;1.05;;;;;;;29.29;27.89;100449.81;7390714;19;20018;-79
2023/05/22 03:14:13;;;;;;;0.63;0.63;;;;;;;29.24;28.29;100439.34;7396726;19;20044;-79
2023/05/22 03:16:40;;;;;;;1.85;0.65;;;;;;;29.18;28.43;100444.59;7393304;19;20014;-80
2023/05/22 03:19:08;;;;;;;0.50;0.50;;;;;;;29.23;28.21;100437.84;7394081;19;20007;-79
2023/05/22 03:21:34;;;;;;;0.38;0.38;;;;;;;29.04;28.20;100443.41;7390781;19;20052;-79
2023/05/22 03:24:01;;;;;;;0.80;0.80;;;;;;;29.14;28.11;100435.63;7393154;19;20015;-79
2023/05/22 03:26:27;;;;;;;0.55;0.55;;;;;;;29.14;28.42;100439.25;7394236;19;20505;-79
2023/05/22 03:28:55;;;;;;;0.40;0.40;;;;;;;29.46;27.85;100438.28;7393261;19;20014;-79
2023/05/22 03:31:27;;;;;;;2.83;0.75;;;;;;;29.28;27.56;100439.69;7389806;19;20036;-79
2023/05/22 03:34:04;;;;;;;0.95;0.95;;;;;;;29.52;27.59;100441.66;7391828;19;20006;-79
2023/05/22 03:36:34;;;;;;;0.40;0.40;;;;;;;29.29;27.93;100441.19;7391829;19;20038;-79
2023/05/22 03:39:02;;;;;;;0.68;0.55;;;;;;;29.18;28.22;100442.47;7393583;19;20018;-79
2023/05/22 03:41:30;;;;;;;1.85;0.50;;;;;;;28.97;27.79;100445.00;7389366;19;20035;-80
2023/05/22 03:43:57;;;;;;;0.65;0.50;;;;;;;28.45;28.79;100438.44;7395872;19;20015;-79
2023/05/22 03:46:23;;;;;;;1.85;0.70;;;;;;;28.42;28.50;100442.47;7390688;19;20105;-79
2023/05/22 03:48:50;;;;;;;0.98;0.88;;;;;;;28.82;27.92;100441.53;7393900;19;20018;-79
2023/05/22 03:51:16;;;;;;;3.60;1.35;;;;;;;28.75;28.23;100448.88;7391024;19;20025;-79
2023/05/22 03:53:42;;;;;;;0.50;0.50;;;;;;;28.69;28.16;100445.50;7392134;19;20030;-80
2023/05/22 03:56:08;;;;;;;1.80;0.80;;;;;;;28.70;28.25;100449.09;7391627;19;20015;-79
2023/05/22 03:58:34;;;;;;;0.38;0.38;;;;;;;28.49;28.31;100441.63;7392250;19;20507;-79
2023/05/22 04:01:00;;;;;;;0.68;0.68;;;;;;;28.56;28.07;100450.75;7392317;19;20041;-79
2023/05/22 04:03:27;;;;;;;0.60;0.60;;;;;;;28.64;27.78;100442.84;7391939;19;20784;-79
2023/05/22 04:05:53;;;;;;;0.57;0.57;;;;;;;28.59;28.10;100446.75;7392917;19;20026;-79
2023/05/22 04:08:20;;;;;;;0.90;0.90;;;;;;;29.09;27.52;100446.00;7391379;19;20014;-79
2023/05/22 04:10:47;;;;;;;0.75;0.75;;;;;;;29.18;27.40;100441.72;7389465;19;20463;-79
2023/05/22 04:13:15;;;;;;;0.85;0.85;;;;;;;29.05;27.41;100450.63;7393485;19;20010;-79
2023/05/22 04:15:44;;;;;;;0.68;0.68;;;;;;;29.32;27.21;100451.50;7391055;19;20010;-80
2023/05/22 04:18:12;;;;;;;0.52;0.52;;;;;;;29.34;27.44;100443.06;7390760;19;20014;-80
2023/05/22 04:20:41;;;;;;;2.42;1.15;;;;;;;29.34;27.15;100443.06;7388774;19;20401;-80
2023/05/22 04:23:08;;;;;;;0.55;0.40;;;;;;;29.48;27.21;100449.94;7391007;19;20011;-80
2023/05/22 04:25:35;;;;;;;1.98;1.00;;;;;;;29.39;27.27;100444.16;7392407;19;20022;-79
2023/05/22 04:28:02;;;;;;;0.90;0.50;;;;;;;29.33;27.47;100444.41;7393371;19;20022;-79
2023/05/22 04:30:38;;;;;;;0.47;0.47;;;;;;;29.27;27.30;100438.16;7393593;19;20350;-79
2023/05/22 04:33:05;;;;;;;0.52;0.52;;;;;;;29.42;27.37;100449.44;7390460;19;20010;-80
2023/05/22 04:35:31;;;;;;;0.85;0.60;;;;;;;29.33;27.39;100447.25;7389680;19;20547;-80
2023/05/22 04:38:05;;;;;;;0.93;0.93;;;;;;;29.40;27.18;100446.41;7388808;19;20018;-79
2023/05/22 04:40:32;;;;;;;1.42;1.33;;;;;;;29.52;27.22;100458.88;7394222;19;20048;-80
2023/05/22 04:42:59;;;;;;;0.40;0.40;;;;;;;29.53;27.42;100459.63;7391466;19;20015;-79
2023/05/22 04:45:27;;;;;;;1.02;0.85;;;;;;;29.54;27.22;100456.16;7393341;19;20021;-79
2023/05/22 04:47:58;;;;;;;3.65;0.70;;;;;;;29.55;27.30;100451.94;7391526;19;20018;-80
2023/05/22 04:50:25;;;;;;;1.10;0.70;;;;;;;29.65;27.21;100455.63;7392806;19;20018;-80
2023/05/22 04:52:52;;;;;;;1.77;0.65;;;;;;;27.70;29.07;100456.13;7390175;19;20028;-80
2023/05/22 04:55:19;;;;;;;1.55;1.20;;;;;;;29.34;27.82;100457.41;7392238;19;20382;-79
2023/05/22 04:57:46;;;;;;;0.50;0.50;;;;;;;29.80;27.25;100461.19;7388984;19;20018;-79
2023/05/22 05:00:14;;;;;;;3.70;1.00;;;;;;;30.07;27.34;100466.16;7392596;19;20035;-79
2023/05/22 05:02:41;;;;;;;1.35;1.08;;;;;;;30.13;27.13;100470.28;7389340;19;20022;-79
2023/05/22 05:05:07;;;;;;;0.50;0.50;;;;;;;30.17;27.25;100472.72;7390002;19;20014;-81
2023/05/22 05:07:38;;;;;;;0.30;0.30;;;;;;;30.17;27.01;100472.72;7391311;19;20018;-81
2023/05/22 05:10:05;;;;;;;0.82;0.70;;;;;;;30.20;27.25;100471.50;7392461;19;20028;-80
2023/05/22 05:12:32;;;;;;;0.30;0.30;;;;;;;30.32;27.12;100473.25;7390826;19;20022;-81
2023/05/22 05:14:58;;;;;;;1.75;0.63;;;;;;;30.43;26.93;100469.06;7390038;19;20346;-80
2023/05/22 05:17:24;;;;;;;0.82;0.82;;;;;;;30.43;27.10;100469.06;7392870;19;20010;-80
2023/05/22 05:19:50;;;;;;;6.50;1.05;;;;;;;30.45;26.88;100472.09;7400397;19;20015;-80
2023/05/22 05:22:16;;;;;;;1.30;0.63;;;;;;;30.54;27.08;100474.22;7396105;19;20010;-80
2023/05/22 05:24:43;;;;;;;5.03;0.85;;;;;;;30.63;26.95;100470.63;7395949;19;20038;-80
2023/05/22 05:27:09;;;;;;;0.43;0.43;;;;;;;30.63;27.29;100474.25;7396900;19;20025;-80
2023/05/22 05:29:36;;;;;;;0.40;0.40;;;;;;;30.83;27.10;100466.41;7399318;19;20007;-80
2023/05/22 05:32:10;;;;;;;0.55;0.55;;;;;;;30.99;27.24;100469.81;7396583;19;20337;-80
2023/05/22 05:35:02;;;;;;;3.70;0.55;;;;;;;31.04;27.33;100475.25;7396010;19;20010;-80
2023/05/22 05:37:47;;;;;;;3.97;0.55;;;;;;;31.15;27.42;100483.28;7393969;19;20809;-79
2023/05/22 05:40:14;;;;;;;1.65;0.50;;;;;;;31.33;27.31;100478.13;7394456;19;20024;-80
2023/05/22 05:42:45;;;;;;;0.30;0.30;;;;;;;31.41;27.12;100482.41;7397852;19;20010;-80
2023/05/22 05:45:13;;;;;;;0.20;0.20;;;;;;;31.41;27.37;100479.50;7396868;19;20469;-80
2023/05/22 05:47:40;;;;;;;0.70;0.70;;;;;;;31.41;27.87;100473.00;7395973;19;20031;-81
2023/05/22 05:50:06;;;;;;;4.10;0.68;;;;;;;31.42;27.38;100469.50;7394812;19;20370;-81
2023/05/22 05:52:34;;;;;;;0.70;0.70;;;;;;;31.47;27.68;100473.44;7395573;19;20381;-81
2023/05/22 05:55:05;;;;;;;1.10;1.10;;;;;;;31.58;27.95;100478.56;7395715;19;20014;-81
2023/05/22 05:57:31;;;;;;;1.65;0.82;;;;;;;31.67;27.81;100477.03;7394957;19;20036;-81
2023/05/22 05:59:57;;;;;;;0.85;0.63;;;;;;;31.72;27.64;100478.84;7394764;19;20088;-81
2023/05/22 06:02:40;;;;;;;1.75;0.95;;;;;;;31.84;27.63;100476.84;7396939;19;20015;-81
2023/05/22 06:05:16;;;;;;;2.05;1.20;;;;;;;31.82;27.52;100476.69;7396798;19;20014;-81
2023/05/22 06:07:43;;;;;;;1.35;1.05;;;;;;;32.22;27.41;100473.88;7394508;19;20472;-80
2023/05/22 06:10:11;;;;;;;2.58;0.68;;;;;;;32.38;27.67;100472.13;7393857;19;20468;-81
2023/05/22 06:12:56;;;;;;;0.40;0.40;;;;;;;32.68;27.32;100474.25;7396214;19;20023;-81
2023/05/22 06:15:22;;;;;;;2.28;0.45;;;;;;;32.84;27.47;100481.13;7394528;19;20010;-81
2023/05/22 06:17:48;;;;;;;4.93;1.02;;;;;;;33.05;27.45;100483.28;7396080;19;20019;-81
2023/05/22 06:20:15;;;;;;;0.38;0.38;;;;;;;33.20;27.40;100479.97;7395008;19;20066;-79
2023/05/22 06:22:41;;;;;;;0.75;0.38;;;;;;;33.27;27.48;100481.88;7395999;19;20386;-79
2023/05/22 06:25:08;;;;;;;0.75;0.38;;;;;;;33.30;27.52;100482.78;7395402;19;20031;-79
2023/05/22 06:27:35;;;;;;;0.50;0.43;;;;;;;33.58;27.35;100487.56;7393811;19;20010;-79
2023/05/22 06:30:03;;;;;;;0.70;0.63;;;;;;;33.77;27.35;100486.59;7396557;19;20017;-79
2023/05/22 06:32:33;;;;;;;;;;;;;;;34.14;27.20;100488.34;7396847;19;20473;-79
2023/05/22 06:35:00;;;;;;;2.72;1.17;;;;;;;34.05;27.21;100494.22;7396814;19;19926;-79
2023/05/22 06:37:27;;;;;;;1.45;0.57;;;;;;;34.17;27.25;100495.78;7393578;19;20017;-78
2023/05/22 06:39:53;;;;;;;2.88;0.73;;;;;;;34.30;27.41;100492.25;7393615;19;20035;-79
2023/05/22 06:42:38;;;;;;;1.17;0.65;;;;;;;34.45;27.38;100496.78;7398248;19;20014;-79
2023/05/22 06:45:25;;;;;;;1.33;1.30;;;;;;;34.57;27.53;100491.00;7393421;19;20350;-79
2023/05/22 06:48:15;;;;;;;3.60;1.00;;;;;;;34.64;27.69;100490.75;7393855;19;20600;-78
2023/05/22 06:51:00;;;;;;;1.55;0.77;;;;;;;34.87;27.64;100495.75;7394118;19;20015;-79
2023/05/22 06:53:26;;;;;;;2.92;0.68;;;;;;;35.06;27.46;100489.69;7396575;19;20457;-79
2023/05/22 06:55:53;;;;;;;0.40;0.40;;;;;;;35.03;28.08;100497.50;7394023;19;20015;-78
2023/05/22 06:58:41;;;;;;;1.25;0.47;;;;;;;35.12;27.71;100492.94;7394159;19;20018;-79
2023/05/22 07:01:08;;;;;;;6.15;0.75;;;;;;;35.29;27.37;100497.53;7391254;19;20470;-79
2023/05/22 07:03:39;;;;;;;0.55;0.55;;;;;;;35.57;27.14;100488.38;7392074;19;20014;-79
2023/05/22 07:06:32;;;;;;;1.95;0.95;;;;;;;35.69;27.55;100500.66;7395032;19;20018;-79
2023/05/22 07:09:00;;;;;;;1.75;1.08;;;;;;;35.66;27.38;100496.13;7392567;19;20017;-79
2023/05/22 07:11:26;;;;;;;2.72;0.70;;;;;;;36.03;27.24;100495.31;7390865;19;20007;-79
2023/05/22 07:13:52;;;;;;;1.55;0.68;;;;;;;35.94;27.17;100499.88;7396946;19;20042;-78
2023/05/22 07:16:18;;;;;;;2.00;1.05;;;;;;;36.17;27.62;100504.81;7393852;19;20018;-79
2023/05/22 07:18:45;;;;;;;1.52;1.08;;;;;;;36.35;27.78;100505.78;7392013;19;20018;-79
2023/05/22 07:21:11;;;;;;;1.67;0.77;;;;;;;36.42;27.52;100504.72;7391487;19;20018;-79
2023/05/22 07:23:37;;;;;;;3.70;0.65;;;;;;;36.48;27.39;100499.25;7392535;19;20010;-78
2023/05/22 07:26:06;;;;;;;0.30;0.30;;;;;;;36.56;27.66;100499.69;7392508;19;20014;-79
2023/05/22 07:28:36;;;;;;;0.65;0.45;;;;;;;36.78;27.08;100508.81;7394075;19;20014;-79
2023/05/22 07:31:10;;;;;;;0.35;0.35;;;;;;;36.99;27.02;100500.53;7390267;19;20023;-78
2023/05/22 07:33:36;;;;;;;2.25;0.70;;;;;;;37.16;26.97;100505.06;7390924;19;20010;-78
2023/05/22 07:36:03;;;;;;;0.20;0.10;;;;;;;37.33;26.69;100503.72;7391080;19;20019;-78
2023/05/22 07:38:29;;;;;;;2.25;0.85;;;;;;;37.35;26.88;100507.50;7392026;19;20355;-78
2023/05/22 07:40:59;;;;;;;2.72;0.63;;;;;;;37.43;26.61;100501.31;7392240;19;20014;-77
2023/05/22 07:43:27;;;;;;;0.88;0.65;;;;;;;37.43;27.04;100507.13;7396320;19;20018;-77
2023/05/22 07:45:54;;;;;;;1.65;0.68;;;;;;;37.70;26.71;100501.22;7392307;19;20010;-77
2023/05/22 07:48:24;;;;;;;0.60;0.30;;;;;;;37.95;26.31;100515.56;7393857;19;20030;-77
2023/05/22 07:50:50;;;;;;;0.70;0.45;;;;;;;38.01;25.78;100512.19;7390151;19;20014;-77
2023/05/22 07:53:17;;;;;;;1.42;0.68;;;;;;;38.35;25.45;100510.91;7394674;19;20085;-78
2023/05/22 07:55:46;;;;;;;3.05;0.30;;;;;;;38.67;25.42;100510.22;7395394;19;20461;-77
2023/05/22 07:58:13;;;;;;;4.00;1.10;;;;;;;38.94;25.16;100515.06;7393321;19;20010;-77
2023/05/22 08:00:41;;;;;;;3.60;0.90;;;;;;;39.14;24.65;100512.31;7392305;19;20369;-78
2023/05/22 08:03:07;;;;;;;0.45;0.45;;;;;;;39.18;24.07;100513.22;7396503;19;20021;-78
2023/05/22 08:05:33;;;;;;;1.92;0.55;;;;;;;39.27;23.99;100508.50;7396054;19;20022;-78
2023/05/22 08:08:01;;;;;;;1.35;0.45;;;;;;;39.40;24.29;100522.16;7393234;19;20074;-78
2023/05/22 08:10:27;;;;;;;0.95;0.20;;;;;;;39.66;23.69;100525.44;7391476;19;20479;-78
2023/05/22 08:12:53;;;;;;;1.15;0.20;;;;;;;39.68;23.22;100531.41;7393862;19;20548;-79
2023/05/22 08:15:21;;;;;;;0.50;0.28;;;;;;;39.82;23.10;100526.88;7390303;19;20047;-77
2023/05/22 08:17:48;;;;;;;0.70;0.43;;;;;;;39.81;23.56;100531.19;7395025;19;20022;-78
2023/05/22 08:20:15;;;;;;;2.00;0.30;;;;;;;39.97;23.25;100528.94;7391260;19;20658;-79
2023/05/22 08:22:41;;;;;;;0.38;0.17;;;;;;;39.89;22.59;100540.28;7393667;19;20552;-77
2023/05/22 08:25:08;;;;;;;0.90;0.40;;;;;;;39.84;23.28;100541.53;7391210;19;20015;-79
2023/05/22 08:27:34;;;;;;;0.63;0.32;;;;;;;39.77;22.93;100533.19;7394816;19;20019;-79
2023/05/22 08:30:01;;;;;;;1.35;0.30;;;;;;;39.83;23.29;100534.19;7391696;19;20342;-79
2023/05/22 08:32:27;;;;;;;0.88;0.50;;;;;;;39.94;23.03;100539.03;7391924;19;20015;-79
2023/05/22 08:34:53;;;;;;;0.30;0.20;;;;;;;39.99;23.15;100534.13;7393064;19;20010;-79
2023/05/22 08:37:20;;;;;;;1.15;0.70;;;;;;;39.99;23.23;100534.88;7390889;19;20341;-78
2023/05/22 08:39:46;;;;;;;1.58;0.30;;;;;;;38.75;23.78;100535.34;7390830;19;20034;-79
2023/05/22 08:42:12;;;;;;;0.10;0.00;;;;;;;38.07;24.42;100539.44;7390789;19;20015;-78
2023/05/22 08:44:38;;;;;;;4.90;0.47;;;;;;;37.76;25.13;100528.44;7391316;19;20010;-78
2023/05/22 08:47:09;;;;;;;0.57;0.17;;;;;;;38.30;24.43;100544.91;7392638;19;20017;-78
2023/05/22 08:49:38;;;;;;;0.70;0.30;;;;;;;38.25;24.48;100531.56;7395291;19;20042;-78
2023/05/22 08:52:11;;;;;;;1.77;0.35;;;;;;;38.08;24.50;100532.19;7388213;19;20018;-79
2023/05/22 08:54:43;;;;;;;1.45;0.22;;;;;;;37.96;24.42;100534.53;7389652;19;20011;-79
2023/05/22 08:57:10;;;;;;;0.82;0.20;;;;;;;38.03;24.62;100539.22;7390318;19;20017;-79
2023/05/22 08:59:39;;;;;;;1.33;0.40;;;;;;;37.97;25.03;100542.59;7389341;19;20011;-78
2023/05/22 09:02:06;;;;;;;0.17;0.13;;;;;;;37.88;24.82;100537.06;7393163;19;20218;-79
2023/05/22 09:04:32;;;;;;;4.60;0.63;;;;;;;37.88;25.16;100539.97;7391836;19;20035;-80
2023/05/22 09:07:04;;;;;;;3.92;0.45;;;;;;;37.95;24.92;100547.56;7389490;19;20354;-79
2023/05/22 09:09:35;;;;;;;0.63;0.35;;;;;;;37.80;24.95;100539.53;7389504;19;20014;-80
2023/05/22 09:12:01;;;;;;;2.38;0.45;;;;;;;37.69;24.65;100541.19;7388701;19;20022;-79
2023/05/22 09:14:27;;;;;;;1.33;0.30;;;;;;;37.60;25.01;100532.72;7393535;19;20061;-79
2023/05/22 09:16:53;;;;;;;4.38;0.63;;;;;;;37.54;25.01;100535.31;7386946;19;20423;-79
2023/05/22 09:19:20;;;;;;;1.85;0.85;;;;;;;37.58;24.93;100529.69;7389157;19;20386;-79
2023/05/22 09:21:50;;;;;;;1.65;0.68;;;;;;;37.48;25.29;100535.00;7387855;19;20030;-79
2023/05/22 09:24:16;;;;;;;0.30;0.20;;;;;;;37.64;25.59;100538.75;7387972;19;20048;-80
2023/05/22 09:26:42;;;;;;;1.25;0.28;;;;;;;37.85;25.25;100529.63;7395413;19;20007;-79
2023/05/22 09:29:08;;;;;;;1.05;0.60;;;;;;;37.97;24.97;100530.19;7390863;19;20020;-79
2023/05/22 09:31:40;;;;;;;1.75;0.25;;;;;;;38.15;25.52;100531.06;7392439;19;20014;-78
2023/05/22 09:34:09;;;;;;;1.02;0.30;;;;;;;38.05;25.05;100530.59;7392119;19;20029;-79
2023/05/22 09:36:35;;;;;;;2.28;0.68;;;;;;;37.97;24.86;100528.03;7390280;19;20014;-80
2023/05/22 09:39:03;;;;;;;2.70;0.43;;;;;;;37.86;25.08;100531.09;7390877;19;20014;-80
2023/05/22 09:41:33;;;;;;;2.53;0.68;;;;;;;37.73;25.37;100529.75;7388354;19;20025;-79
2023/05/22 09:44:00;;;;;;;;;;;;;;;37.85;24.96;100529.63;7395314;19;20026;-79
2023/05/22 09:46:26;;;;;;;0.90;0.55;;;;;;;37.69;25.37;100525.88;7390139;19;20019;-79
2023/05/22 09:48:53;;;;;;;1.30;0.43;;;;;;;37.73;25.46;100529.00;7392687;19;20367;-80
2023/05/22 09:51:22;;;;;;;2.70;0.63;;;;;;;37.67;25.53;100520.72;7388173;19;20056;-79
2023/05/22 09:53:50;;;;;;;2.10;0.80;;;;;;;37.94;25.08;100514.06;7388748;19;20468;-80
2023/05/22 09:56:17;;;;;;;2.63;0.65;;;;;;;38.18;25.54;100512.31;7388075;19;20010;-80
2023/05/22 09:58:45;;;;;;;1.42;0.75;;;;;;;38.79;25.00;100512.94;7392106;19;20026;-79
2023/05/22 10:01:14;;;;;;;1.00;0.43;;;;;;;39.80;24.05;100518.03;7385683;19;20025;-79
2023/05/22 10:03:42;;;;;;;4.03;0.52;;;;;;;39.70;24.56;100516.88;7394794;19;20022;-79
2023/05/22 10:06:11;;;;;;;1.55;0.98;;;;;;;40.10;23.97;100516.34;7393874;19;20022;-79
2023/05/22 10:08:49;;;;;;;1.30;0.50;;;;;;;40.21;24.18;100513.81;7393588;19;20018;-80
2023/05/22 10:11:16;;;;;;;2.72;0.75;;;;;;;40.24;23.94;100522.00;7398752;19;20468;-79
2023/05/22 10:13:43;;;;;;;3.65;0.57;;;;;;;40.51;23.52;100523.75;7400064;19;20044;-79
2023/05/22 10:16:12;;;;;;;4.22;1.05;;;;;;;40.65;23.55;100521.38;7395412;19;20010;-79
2023/05/22 10:18:39;;;;;;;1.77;0.63;;;;;;;40.77;23.36;100522.56;7393537;19;20014;-79
2023/05/22 10:21:06;;;;;;;0.73;0.20;;;;;;;40.96;23.51;100520.31;7394707;19;20025;-79
2023/05/22 10:23:32;;;;;;;2.75;1.08;;;;;;;41.19;23.66;100514.56;7397716;19;20014;-79
2023/05/22 10:25:58;;;;;;;2.55;0.47;;;;;;;41.01;22.68;100522.69;7396683;19;20021;-79
2023/05/22 10:28:29;;;;;;;1.55;0.63;;;;;;;41.05;22.78;100522.06;7396142;19;20011;-79
2023/05/22 10:31:04;;;;;;;3.38;0.77;;;;;;;41.25;22.54;100528.66;7391816;19;20022;-79
2023/05/22 10:34:01;;;;;;;5.28;0.77;;;;;;;41.04;22.81;100530.13;7394866;19;20601;-77
2023/05/22 10:36:45;;;;;;;4.22;0.65;;;;;;;41.31;22.49;100515.00;7394521;19;20337;-80
2023/05/22 10:39:36;;;;;;;2.83;0.65;;;;;;;41.33;22.43;100518.00;7393115;19;20018;-81
2023/05/22 10:42:02;;;;;;;1.10;0.35;;;;;;;41.33;22.76;100517.22;7396262;19;20086;-80
2023/05/22 10:44:28;;;;;;;2.60;0.90;;;;;;;41.47;22.74;100521.41;7394186;19;20086;-79
2023/05/22 10:46:54;;;;;;;3.65;0.77;;;;;;;41.56;22.32;100510.72;7395833;19;20014;-80
2023/05/22 10:49:22;;;;;;;2.97;0.63;;;;;;;41.55;22.13;100515.81;7398222;19;20010;-79
2023/05/22 10:51:54;;;;;;;2.38;0.65;;;;;;;41.42;22.75;100519.00;7392221;19;20014;-80
2023/05/22 10:54:41;;;;;;;1.25;0.30;;;;;;;41.53;23.22;100515.75;7395719;19;20015;-78
2023/05/22 10:57:15;;;;;;;0.50;0.38;;;;;;;41.78;23.06;100508.50;7392872;19;20015;-78
2023/05/22 10:59:42;;;;;;;1.83;0.75;;;;;;;41.99;22.78;100504.06;7396908;19;20391;-78
2023/05/22 11:02:28;;;;;;;6.65;1.20;;;;;;;42.21;22.18;100496.69;7394158;19;20010;-79
2023/05/22 11:04:54;;;;;;;4.68;0.52;;;;;;;42.28;22.08;100500.56;7393841;19;20011;-79
2023/05/22 11:07:21;;;;;;;3.20;1.02;;;;;;;42.37;22.42;100507.41;7394663;19;20033;-79
2023/05/22 11:09:47;;;;;;;3.20;1.08;;;;;;;42.35;22.19;100505.16;7394343;19;20074;-80
2023/05/22 11:12:29;;;;;;;6.22;0.55;;;;;;;42.48;22.84;100495.31;7394743;19;20014;-80
2023/05/22 11:15:04;;;;;;;4.07;1.38;;;;;;;42.53;22.49;100496.19;7391264;19;20018;-80
2023/05/22 11:17:32;;;;;;;9.48;0.82;;;;;;;42.56;22.10;100492.63;7392765;19;20025;-80
2023/05/22 11:20:06;;;;;;;4.15;0.50;;;;;;;42.52;22.45;100489.56;7395564;19;20025;-79
2023/05/22 11:22:35;;;;;;;4.13;1.10;;;;;;;42.46;22.30;100488.63;7392474;19;20018;-81
2023/05/22 11:25:06;;;;;;;0.98;0.30;;;;;;;42.35;22.01;100487.59;7393980;19;20098;-79
2023/05/22 11:27:33;;;;;;;4.13;0.82;;;;;;;42.21;22.74;100490.13;7392396;19;20006;-80
2023/05/22 11:30:00;;;;;;;3.03;0.73;;;;;;;42.15;22.78;100492.84;7396045;19;20362;-79
2023/05/22 11:32:27;;;;;;;3.45;0.60;;;;;;;42.14;22.68;100479.66;7394133;19;20022;-80
2023/05/22 11:34:55;;;;;;;0.50;0.10;;;;;;;41.92;22.87;100487.72;7394026;19;20533;-80